Time;durP1;ratioP1;P1;durP2;ratioP2;P2;SDS_P1;SDS_P2;PMS_P1;PMS_P2;Temp;Humidity;BMP_temperature;BMP_pressure;BME280_temperature;BME280_humidity;BME280_pressure;Samples;Min_cycle;Max_cycle;Signal;HPM_P1;HPM_P2
2022/10/10 16:37:59;;;;;;;;;;;18.00;99.90;;;;;;2612032;54;19973;-66
2022/10/10 16:40:28;;;;;;;;;;;18.70;99.90;;;;;;2613363;39;20256;-67
2022/10/10 16:42:58;;;;;;;;;;;18.50;99.90;;;;;;2613914;39;20346;-66
2022/10/10 16:45:27;;;;;;;;;;;18.40;99.90;;;;;;2613991;47;20090;-69
2022/10/10 16:47:57;;;;;;;;;;;18.30;99.90;;;;;;2614110;54;19971;-67
2022/10/10 16:50:26;;;;;;;;;;;18.20;99.90;;;;;;2611737;47;19954;-66
2022/10/10 16:52:59;;;;;;;;;;;18.10;99.90;;;;;;2616198;51;19946;-67
2022/10/10 16:55:29;;;;;;;;;;;18.00;99.90;;;;;;2618042;47;19962;-67
2022/10/10 16:57:58;;;;;;;;;;;17.90;99.90;;;;;;2614434;54;19958;-66
2022/10/10 17:00:28;;;;;;;;;;;17.90;99.90;;;;;;2613229;47;20046;-67
2022/10/10 17:02:57;;;;;;;;;;;17.80;99.90;;;;;;2613169;54;19954;-67
2022/10/10 17:05:27;;;;;;;;;;;17.70;99.90;;;;;;2614487;39;20433;-67
2022/10/10 17:07:59;;;;;;;;;;;17.70;99.90;;;;;;2611604;54;19954;-67
2022/10/10 17:10:28;;;;;;;;;;;17.70;99.90;;;;;;2614907;31;20421;-67
2022/10/10 17:12:58;;;;;;;;;;;17.60;99.90;;;;;;2614107;47;19997;-66
2022/10/10 17:15:27;;;;;;;;;;;17.60;99.90;;;;;;2613912;31;20515;-66
2022/10/10 17:17:57;;;;;;;;;;;17.60;99.90;;;;;;2611977;54;19998;-67
2022/10/10 17:20:28;;;;;;;;;;;17.50;99.90;;;;;;2612579;54;19954;-66
2022/10/10 17:23:00;;;;;;;;;;;17.50;99.90;;;;;;2613792;54;19983;-66
2022/10/10 17:25:30;;;;;;;;;;;17.40;99.90;;;;;;2612414;47;20037;-67
2022/10/10 17:28:00;;;;;;;;;;;17.40;99.90;;;;;;2611866;47;19969;-66
2022/10/10 17:30:29;;;;;;;;;;;17.30;99.90;;;;;;2611733;54;19978;-64
2022/10/10 17:32:59;;;;;;;;;;;17.30;99.90;;;;;;2611390;54;19967;-65
2022/10/10 17:35:28;;;;;;;;;;;17.30;99.90;;;;;;2612350;54;20030;-65
2022/10/10 17:38:00;;;;;;;;;;;17.50;99.90;;;;;;2612705;47;20038;-64
2022/10/10 17:40:57;;;;;;;;;;;17.20;99.90;;;;;;2613320;54;20471;-64
2022/10/10 17:43:26;;;;;;;;;;;17.20;99.90;;;;;;2612121;54;19966;-64
2022/10/10 17:45:59;;;;;;;;;;;17.20;99.90;;;;;;2613767;54;19950;-66
2022/10/10 17:48:49;;;;;;;;;;;17.20;99.90;;;;;;2614414;39;20353;-65
2022/10/10 17:51:21;;;;;;;;;;;17.20;99.90;;;;;;2613719;54;19950;-65
2022/10/10 17:53:53;;;;;;;;;;;17.20;99.90;;;;;;2611819;54;20086;-65
2022/10/10 17:56:23;;;;;;;;;;;17.10;99.90;;;;;;2611854;54;20019;-64
2022/10/10 17:58:53;;;;;;;;;;;17.10;99.90;;;;;;2612890;47;19958;-64
2022/10/10 18:01:22;;;;;;;;;;;17.10;99.90;;;;;;2616940;47;19954;-64
2022/10/10 18:03:52;;;;;;;;;;;17.10;99.90;;;;;;2614816;47;20038;-63
2022/10/10 18:06:23;;;;;;;;;;;17.00;99.90;;;;;;2613435;54;20046;-63
2022/10/10 18:08:55;;;;;;;;;;;16.90;99.90;;;;;;2613767;54;19994;-64
2022/10/10 18:11:25;;;;;;;;;;;16.90;99.90;;;;;;2614435;39;20364;-64
2022/10/10 18:13:58;;;;;;;;;;;16.90;99.90;;;;;;2616457;54;19998;-63
2022/10/10 18:16:31;;;;;;;;;;;16.90;99.90;;;;;;2614312;47;19947;-63
2022/10/10 18:19:01;;;;;;;;;;;16.90;99.90;;;;;;2615143;39;20380;-63
2022/10/10 18:21:30;;;;;;;;;;;16.80;99.90;;;;;;2613735;47;20053;-61
2022/10/10 18:24:02;;;;;;;;;;;16.80;99.90;;;;;;2613431;54;20008;-62
2022/10/10 18:26:33;;;;;;;;;;;16.70;99.90;;;;;;2613642;54;19958;-62
2022/10/10 18:29:03;;;;;;;;;;;16.70;99.90;;;;;;2612736;47;20018;-62
2022/10/10 18:31:34;;;;;;;;;;;16.70;99.90;;;;;;2613220;54;20023;-63
2022/10/10 18:34:04;;;;;;;;;;;16.60;99.90;;;;;;2613975;54;19954;-63
2022/10/10 18:36:35;;;;;;;;;;;16.60;99.90;;;;;;2613943;39;20326;-64
2022/10/10 18:39:08;;;;;;;;;;;16.50;99.90;;;;;;2614977;39;20565;-64
2022/10/10 18:41:38;;;;;;;;;;;16.40;99.90;;;;;;2611668;47;20082;-63
2022/10/10 18:44:09;;;;;;;;;;;16.30;99.90;;;;;;2614972;54;20533;-65
2022/10/10 18:46:39;;;;;;;;;;;16.30;99.90;;;;;;2613855;54;20469;-64
2022/10/10 18:49:10;;;;;;;;;;;16.20;99.90;;;;;;2612544;47;19955;-65
2022/10/10 18:51:41;;;;;;;;;;;16.20;99.90;;;;;;2617933;54;20005;-63
2022/10/10 18:54:15;;;;;;;;;;;16.10;99.90;;;;;;2616464;54;19955;-63
2022/10/10 18:56:45;;;;;;;;;;;16.10;99.90;;;;;;2613371;47;20045;-63
2022/10/10 18:59:15;;;;;;;;;;;16.10;99.90;;;;;;2613378;54;20082;-64
2022/10/10 19:01:45;;;;;;;;;;;16.00;99.90;;;;;;2613475;54;20079;-64
2022/10/10 19:04:16;;;;;;;;;;;16.00;99.90;;;;;;2613620;54;20069;-65
2022/10/10 19:06:45;;;;;;;;;;;15.90;99.90;;;;;;2614003;54;19973;-64
2022/10/10 19:09:18;;;;;;;;;;;15.90;99.90;;;;;;2612856;54;19997;-64
2022/10/10 19:11:49;;;;;;;;;;;15.80;99.90;;;;;;2613586;47;20012;-64
2022/10/10 19:14:19;;;;;;;;;;;15.80;99.90;;;;;;2613707;54;20042;-64
2022/10/10 19:16:49;;;;;;;;;;;15.80;99.90;;;;;;2613546;54;19954;-65
2022/10/10 19:19:20;;;;;;;;;;;15.70;99.90;;;;;;2614048;54;19981;-64
2022/10/10 19:21:49;;;;;;;;;;;15.70;99.90;;;;;;2615575;54;19954;-64
2022/10/10 19:24:22;;;;;;;;;;;15.70;99.90;;;;;;2614507;54;19971;-63
2022/10/10 19:26:54;;;;;;;;;;;15.70;99.90;;;;;;2613065;54;20098;-64
2022/10/10 19:29:24;;;;;;;;;;;15.70;99.90;;;;;;2613918;54;19974;-64
2022/10/10 19:31:54;;;;;;;;;;;15.70;99.90;;;;;;2611745;47;20033;-64
2022/10/10 19:34:24;;;;;;;;;;;15.70;99.90;;;;;;2612931;46;20294;-64
2022/10/10 19:36:55;;;;;;;;;;;15.60;99.90;;;;;;2611525;47;19974;-63
2022/10/10 19:39:27;;;;;;;;;;;15.60;99.90;;;;;;2614499;31;20454;-64
2022/10/10 19:41:57;;;;;;;;;;;15.60;99.90;;;;;;2613776;54;20560;-66
2022/10/10 19:44:26;;;;;;;;;;;15.60;99.90;;;;;;2616073;54;20426;-65
2022/10/10 19:46:58;;;;;;;;;;;15.60;99.90;;;;;;2614667;54;19975;-65
2022/10/10 19:49:27;;;;;;;;;;;15.50;99.90;;;;;;2614727;47;19973;-65
2022/10/10 19:51:57;;;;;;;;;;;15.50;99.90;;;;;;2615417;46;20005;-64
2022/10/10 19:54:29;;;;;;;;;;;15.50;99.90;;;;;;2613914;54;19971;-64
2022/10/10 19:56:58;;;;;;;;;;;15.50;99.90;;;;;;2615071;39;20298;-65
2022/10/10 19:59:28;;;;;;;;;;;15.50;99.90;;;;;;2614426;31;20453;-65
2022/10/10 20:01:58;;;;;;;;;;;15.50;99.90;;;;;;2612730;47;19975;-64
2022/10/10 20:04:27;;;;;;;;;;;15.40;99.90;;;;;;2613781;47;19946;-64
2022/10/10 20:06:57;;;;;;;;;;;15.40;99.90;;;;;;2615440;31;20473;-64
2022/10/10 20:09:29;;;;;;;;;;;15.40;99.90;;;;;;2614339;47;19947;-65
2022/10/10 20:11:58;;;;;;;;;;;15.40;99.90;;;;;;2615638;54;20461;-65
2022/10/10 20:14:28;;;;;;;;;;;15.40;99.90;;;;;;2615370;54;19977;-66
2022/10/10 20:16:57;;;;;;;;;;;15.40;99.90;;;;;;2616128;47;19997;-64
2022/10/10 20:19:27;;;;;;;;;;;15.40;99.90;;;;;;2616440;54;19950;-63
2022/10/10 20:21:57;;;;;;;;;;;15.40;99.90;;;;;;2615757;54;19963;-66
2022/10/10 20:24:29;;;;;;;;;;;15.40;99.90;;;;;;2615749;54;19983;-64
2022/10/10 20:26:58;;;;;;;;;;;15.40;99.90;;;;;;2615204;47;20034;-64
2022/10/10 20:29:28;;;;;;;;;;;15.40;99.90;;;;;;2616126;47;19950;-63
2022/10/10 20:31:57;;;;;;;;;;;15.40;99.90;;;;;;2615355;47;19946;-64
2022/10/10 20:34:27;;;;;;;;;;;15.50;99.90;;;;;;2615869;47;20453;-64
2022/10/10 20:36:56;;;;;;;;;;;15.50;99.90;;;;;;2615982;39;20450;-63
2022/10/10 20:39:28;;;;;;;;;;;15.40;99.90;;;;;;2618046;54;19985;-65
2022/10/10 20:41:58;;;;;;;;;;;15.40;99.90;;;;;;2616134;54;19945;-64
2022/10/10 20:44:28;;;;;;;;;;;15.40;99.90;;;;;;2615250;47;20533;-63
2022/10/10 20:46:57;;;;;;;;;;;15.40;99.90;;;;;;2615285;47;19959;-63
2022/10/10 20:49:26;;;;;;;;;;;15.40;99.90;;;;;;2615020;54;19978;-66
2022/10/10 20:51:56;;;;;;;;;;;15.40;99.90;;;;;;2615126;39;20465;-64
2022/10/10 20:54:29;;;;;;;;;;;15.40;99.90;;;;;;2615639;54;19947;-63
2022/10/10 20:56:58;;;;;;;;;;;15.40;99.90;;;;;;2614926;54;19987;-64
2022/10/10 20:59:28;;;;;;;;;;;15.40;99.90;;;;;;2614189;54;19951;-64
2022/10/10 21:01:57;;;;;;;;;;;15.40;99.90;;;;;;2615539;47;20533;-64
2022/10/10 21:04:27;;;;;;;;;;;15.30;99.90;;;;;;2615100;54;19955;-70
2022/10/10 21:06:56;;;;;;;;;;;15.30;99.90;;;;;;2614658;54;19938;-64
2022/10/10 21:09:28;;;;;;;;;;;15.30;99.90;;;;;;2615603;47;19997;-64
2022/10/10 21:11:58;;;;;;;;;;;15.30;99.90;;;;;;2615029;39;20410;-64
2022/10/10 21:14:27;;;;;;;;;;;15.30;99.90;;;;;;2614881;54;20057;-64
2022/10/10 21:16:57;;;;;;;;;;;15.30;99.90;;;;;;2613912;54;20038;-64
2022/10/10 21:19:26;;;;;;;;;;;15.30;99.90;;;;;;2615219;54;20445;-65
2022/10/10 21:21:56;;;;;;;;;;;15.20;99.90;;;;;;2615484;54;19969;-64
2022/10/10 21:24:25;;;;;;;;;;;15.20;99.90;;;;;;2614386;47;20042;-64
2022/10/10 21:26:57;;;;;;;;;;;15.20;99.90;;;;;;2613536;47;20078;-64
2022/10/10 21:29:27;;;;;;;;;;;15.20;99.90;;;;;;2614582;54;20041;-65
2022/10/10 21:31:56;;;;;;;;;;;15.20;99.90;;;;;;2615470;54;20497;-65
2022/10/10 21:34:26;;;;;;;;;;;15.20;99.90;;;;;;2615810;54;19981;-64
2022/10/10 21:36:55;;;;;;;;;;;15.20;99.90;;;;;;2616656;54;19950;-64
2022/10/10 21:39:25;;;;;;;;;;;15.20;99.90;;;;;;2617571;54;20030;-64
2022/10/10 21:41:57;;;;;;;;;;;15.20;99.90;;;;;;2617107;47;20468;-64
2022/10/10 21:44:27;;;;;;;;;;;15.20;99.90;;;;;;2618156;54;20522;-65
2022/10/10 21:46:56;;;;;;;;;;;15.10;99.90;;;;;;2617840;54;20442;-64
2022/10/10 21:49:26;;;;;;;;;;;15.10;99.90;;;;;;2619136;39;20296;-63
2022/10/10 21:51:55;;;;;;;;;;;15.10;99.90;;;;;;2618334;54;19978;-63
2022/10/10 21:54:25;;;;;;;;;;;15.10;99.90;;;;;;2616161;54;20500;-64
2022/10/10 21:56:54;;;;;;;;;;;15.00;99.90;;;;;;2615168;54;20049;-65
2022/10/10 21:59:30;;;;;;;;;;;15.00;99.90;;;;;;2615625;47;19958;-66
2022/10/10 22:01:59;;;;;;;;;;;15.00;99.90;;;;;;2616311;51;20038;-64
2022/10/10 22:04:29;;;;;;;;;;;15.00;99.90;;;;;;2615864;47;19950;-64
2022/10/10 22:06:58;;;;;;;;;;;15.00;99.90;;;;;;2613727;54;20541;-65
2022/10/10 22:09:28;;;;;;;;;;;15.00;99.90;;;;;;2615207;54;19970;-65
2022/10/10 22:11:57;;;;;;;;;;;14.90;99.90;;;;;;2616840;54;20336;-65
2022/10/10 22:14:29;;;;;;;;;;;14.90;99.90;;;;;;2617034;54;19997;-66
2022/10/10 22:16:59;;;;;;;;;;;14.90;99.90;;;;;;2616553;54;20515;-64
2022/10/10 22:19:28;;;;;;;;;;;14.90;99.90;;;;;;2616735;54;19958;-65
2022/10/10 22:21:58;;;;;;;;;;;14.90;99.90;;;;;;2615346;47;20517;-64
2022/10/10 22:24:27;;;;;;;;;;;14.90;99.90;;;;;;2616173;46;19953;-63
2022/10/10 22:26:57;;;;;;;;;;;14.90;99.90;;;;;;2614601;54;20613;-64
2022/10/10 22:29:26;;;;;;;;;;;14.90;99.90;;;;;;2615016;54;19998;-64
2022/10/10 22:31:58;;;;;;;;;;;14.90;99.90;;;;;;2615624;54;20537;-63
2022/10/10 22:34:28;;;;;;;;;;;14.80;99.90;;;;;;2614696;54;19954;-63
2022/10/10 22:36:58;;;;;;;;;;;14.80;99.90;;;;;;2615328;54;20074;-63
2022/10/10 22:39:27;;;;;;;;;;;14.80;99.90;;;;;;2614556;54;19979;-64
2022/10/10 22:41:57;;;;;;;;;;;14.70;99.90;;;;;;2615970;54;20001;-62
2022/10/10 22:44:26;;;;;;;;;;;14.70;99.90;;;;;;2616316;47;20010;-61
2022/10/10 22:46:58;;;;;;;;;;;14.70;99.90;;;;;;2615114;39;20336;-63
2022/10/10 22:49:28;;;;;;;;;;;14.70;99.90;;;;;;2615255;47;19979;-61
2022/10/10 22:51:57;;;;;;;;;;;14.70;99.90;;;;;;2616506;54;19954;-62
2022/10/10 22:54:27;;;;;;;;;;;14.60;99.90;;;;;;2616465;54;19954;-61
2022/10/10 22:56:56;;;;;;;;;;;14.60;99.90;;;;;;2614830;54;20022;-61
2022/10/10 22:59:26;;;;;;;;;;;14.50;99.90;;;;;;2614196;54;19978;-63
2022/10/10 23:01:55;;;;;;;;;;;14.50;99.90;;;;;;2613760;54;19959;-62
2022/10/10 23:04:28;;;;;;;;;;;14.50;99.90;;;;;;2614611;51;20004;-63
2022/10/10 23:06:57;;;;;;;;;;;14.40;99.90;;;;;;2615193;54;19993;-63
2022/10/10 23:09:27;;;;;;;;;;;14.40;99.90;;;;;;2615046;47;19963;-63
2022/10/10 23:11:56;;;;;;;;;;;14.40;99.90;;;;;;2614244;54;19954;-63
2022/10/10 23:14:26;;;;;;;;;;;14.40;99.90;;;;;;2615612;54;19997;-62
2022/10/10 23:16:55;;;;;;;;;;;14.40;99.90;;;;;;2615729;47;19997;-63
2022/10/10 23:19:28;;;;;;;;;;;14.40;99.90;;;;;;2613967;54;20128;-63
2022/10/10 23:21:58;;;;;;;;;;;14.40;99.90;;;;;;2616264;39;20349;-63
2022/10/10 23:24:27;;;;;;;;;;;14.40;99.90;;;;;;2615522;47;19962;-61
2022/10/10 23:26:57;;;;;;;;;;;14.40;99.90;;;;;;2614939;54;19971;-62
2022/10/10 23:29:26;;;;;;;;;;;14.40;99.90;;;;;;2618091;31;20464;-62
2022/10/10 23:31:56;;;;;;;;;;;14.30;99.90;;;;;;2618321;54;20051;-62
2022/10/10 23:34:28;;;;;;;;;;;14.30;99.90;;;;;;2615060;49;20066;-62
2022/10/10 23:36:57;;;;;;;;;;;14.20;99.90;;;;;;2614771;54;19997;-63
2022/10/10 23:39:27;;;;;;;;;;;14.20;99.90;;;;;;2613922;46;20051;-63
2022/10/10 23:41:56;;;;;;;;;;;14.20;99.90;;;;;;2615917;54;19955;-62
2022/10/10 23:44:26;;;;;;;;;;;14.20;99.90;;;;;;2615388;54;20041;-61
2022/10/10 23:46:55;;;;;;;;;;;14.20;99.90;;;;;;2614998;54;20089;-64
2022/10/10 23:49:27;;;;;;;;;;;14.20;99.90;;;;;;2614401;54;19991;-62
2022/10/10 23:51:57;;;;;;;;;;;14.20;99.90;;;;;;2614702;54;20027;-62
2022/10/10 23:54:26;;;;;;;;;;;14.20;99.90;;;;;;2614883;47;19958;-62
2022/10/10 23:56:56;;;;;;;;;;;14.10;99.90;;;;;;2614420;54;19950;-61
2022/10/10 23:59:25;;;;;;;;;;;14.20;99.90;;;;;;2614694;54;19946;-62
